createdAt,value
2017-10-08T00:00:26.461Z,0
2017-10-08T00:01:28.042Z,0
2017-10-08T00:02:29.625Z,0
2017-10-08T00:03:31.222Z,0
2017-10-08T00:04:32.807Z,0
2017-10-08T00:05:34.465Z,0
2017-10-08T00:06:36.008Z,0
2017-10-08T00:07:37.572Z,0
2017-10-08T00:08:39.121Z,0
2017-10-08T00:09:40.816Z,0
2017-10-08T00:10:42.362Z,0
2017-10-08T00:11:44.051Z,0
2017-10-08T00:12:45.679Z,0
2017-10-08T00:13:47.274Z,0
2017-10-08T00:14:48.790Z,0
2017-10-08T00:15:50.421Z,0
2017-10-08T00:16:51.974Z,0
2017-10-08T00:17:53.738Z,0
2017-10-08T00:18:55.272Z,0
2017-10-08T00:19:56.897Z,0
2017-10-08T00:20:58.397Z,0
2017-10-08T00:22:00.993Z,0
2017-10-08T00:23:02.480Z,0
2017-10-08T00:24:04.071Z,0
2017-10-08T00:25:05.551Z,0
2017-10-08T00:26:07.140Z,0
2017-10-08T00:27:08.645Z,0
2017-10-08T00:28:10.301Z,0
2017-10-08T00:29:11.888Z,0
2017-10-08T00:30:13.639Z,0
2017-10-08T00:31:15.101Z,0
2017-10-08T00:32:16.758Z,0
2017-10-08T00:33:18.281Z,0
2017-10-08T00:34:19.882Z,0
2017-10-08T00:35:21.391Z,0
2017-10-08T00:36:22.991Z,0
2017-10-08T00:37:24.517Z,0
2017-10-08T00:38:26.099Z,0
2017-10-08T00:39:27.595Z,0
2017-10-08T00:40:29.204Z,0
2017-10-08T00:41:30.731Z,0
2017-10-08T00:42:32.259Z,0
2017-10-08T00:43:33.776Z,0
2017-10-08T00:44:35.335Z,0
2017-10-08T00:45:36.797Z,0
2017-10-08T00:46:38.433Z,0
2017-10-08T00:47:39.947Z,0
2017-10-08T00:48:41.545Z,0
2017-10-08T00:49:43.097Z,0
2017-10-08T00:50:44.737Z,0
2017-10-08T00:51:46.275Z,0
2017-10-08T00:52:47.820Z,0
2017-10-08T00:53:49.352Z,0
2017-10-08T00:54:50.856Z,0
2017-10-08T00:55:52.337Z,0
2017-10-08T00:56:53.953Z,0
2017-10-08T00:57:55.464Z,0
2017-10-08T00:58:57.055Z,0
2017-10-08T00:59:58.468Z,0
2017-10-08T01:00:59.970Z,0
2017-10-08T01:02:01.452Z,0
2017-10-08T01:03:02.972Z,0
2017-10-08T01:04:04.437Z,0
2017-10-08T01:05:05.960Z,0
2017-10-08T01:06:07.441Z,0
2017-10-08T01:07:08.951Z,0
2017-10-08T01:08:10.433Z,0
2017-10-08T01:09:12.047Z,0
2017-10-08T01:10:13.570Z,0
2017-10-08T01:11:15.175Z,0
2017-10-08T01:12:16.626Z,0
2017-10-08T01:13:18.184Z,0
2017-10-08T01:14:19.700Z,0
2017-10-08T01:15:21.302Z,0
2017-10-08T01:16:22.787Z,0
2017-10-08T01:17:24.364Z,0
2017-10-08T01:18:25.944Z,0
2017-10-08T01:19:27.442Z,0
2017-10-08T01:20:28.915Z,0
2017-10-08T01:21:30.425Z,0
2017-10-08T01:22:31.894Z,0
2017-10-08T01:23:33.401Z,0
2017-10-08T01:24:34.886Z,0
2017-10-08T01:25:36.622Z,0
2017-10-08T01:26:38.186Z,0
2017-10-08T01:27:39.656Z,0
2017-10-08T01:28:41.130Z,0
2017-10-08T01:29:42.683Z,0
2017-10-08T01:30:44.177Z,0
2017-10-08T01:31:45.724Z,0
2017-10-08T01:32:47.262Z,0
2017-10-08T01:33:48.835Z,0
2017-10-08T01:34:50.307Z,0
2017-10-08T01:35:51.798Z,0
2017-10-08T01:36:53.269Z,0
2017-10-08T01:37:54.803Z,0
2017-10-08T01:38:56.268Z,0
2017-10-08T01:39:57.775Z,0
2017-10-08T01:40:59.334Z,0
2017-10-08T01:42:00.947Z,0
2017-10-08T01:43:02.413Z,0
2017-10-08T01:44:04.952Z,0
2017-10-08T01:45:06.396Z,0
2017-10-08T01:46:08.079Z,0
2017-10-08T01:47:09.603Z,0
2017-10-08T01:48:11.176Z,0
2017-10-08T01:49:12.667Z,0
2017-10-08T01:50:14.270Z,0
2017-10-08T01:51:15.745Z,0
2017-10-08T01:52:17.311Z,0
2017-10-08T01:53:18.789Z,0
2017-10-08T01:54:20.318Z,0
2017-10-08T01:55:21.791Z,0
2017-10-08T01:56:23.290Z,0
2017-10-08T01:57:24.753Z,0
2017-10-08T01:58:26.296Z,0
2017-10-08T01:59:27.827Z,0
2017-10-08T02:00:29.334Z,0
2017-10-08T02:01:30.818Z,0
2017-10-08T02:02:32.401Z,0
2017-10-08T02:03:33.893Z,0
2017-10-08T02:04:35.440Z,0
2017-10-08T02:05:36.896Z,0
2017-10-08T02:06:38.422Z,0
2017-10-08T02:07:39.937Z,0
2017-10-08T02:08:41.525Z,0
2017-10-08T02:09:43.139Z,0
2017-10-08T02:10:44.691Z,0
2017-10-08T02:11:46.146Z,0
2017-10-08T02:12:47.614Z,0
2017-10-08T02:13:50.127Z,0
2017-10-08T02:14:51.671Z,0
2017-10-08T02:15:53.239Z,0
2017-10-08T02:16:54.751Z,0
2017-10-08T02:17:56.314Z,0
2017-10-08T02:18:57.776Z,0
2017-10-08T02:19:59.260Z,0
2017-10-08T02:21:00.755Z,0
2017-10-08T02:22:02.274Z,0
2017-10-08T02:23:03.744Z,0
2017-10-08T02:24:05.297Z,0
2017-10-08T02:25:06.787Z,0
2017-10-08T02:26:08.328Z,0
2017-10-08T02:27:09.776Z,0
2017-10-08T02:28:11.316Z,0
2017-10-08T02:29:12.874Z,0
2017-10-08T02:30:14.428Z,0
2017-10-08T02:31:15.966Z,0
2017-10-08T02:32:17.544Z,0
2017-10-08T02:33:19.095Z,0
2017-10-08T02:34:20.728Z,0
2017-10-08T02:35:22.233Z,0
2017-10-08T02:36:23.827Z,0
2017-10-08T02:37:25.322Z,0
2017-10-08T02:38:26.894Z,0
2017-10-08T02:39:28.478Z,0
2017-10-08T02:40:30.097Z,0
2017-10-08T02:41:31.661Z,0
2017-10-08T02:42:33.206Z,0
2017-10-08T02:43:34.772Z,0
2017-10-08T02:44:36.247Z,0
2017-10-08T02:45:37.884Z,0
2017-10-08T02:46:39.391Z,0
2017-10-08T02:47:40.914Z,0
2017-10-08T02:48:42.398Z,0
2017-10-08T02:49:43.964Z,0
2017-10-08T02:50:45.477Z,0
2017-10-08T02:51:47.016Z,0
2017-10-08T02:52:48.495Z,0
2017-10-08T02:53:51.034Z,0
2017-10-08T02:54:52.499Z,0
2017-10-08T02:55:54.093Z,0
2017-10-08T02:56:55.570Z,0
2017-10-08T02:57:57.162Z,0
2017-10-08T02:58:58.677Z,0
2017-10-08T03:00:00.360Z,0
2017-10-08T03:01:01.813Z,0
2017-10-08T03:02:03.329Z,0
2017-10-08T03:03:04.812Z,0
2017-10-08T03:04:06.290Z,0
2017-10-08T03:05:07.781Z,0
2017-10-08T03:06:09.324Z,0
2017-10-08T03:07:10.807Z,0
2017-10-08T03:08:12.425Z,0
2017-10-08T03:09:13.971Z,0
2017-10-08T03:10:15.491Z,0
2017-10-08T03:11:16.980Z,0
2017-10-08T03:12:18.590Z,0
2017-10-08T03:13:20.107Z,0
2017-10-08T03:14:21.685Z,0
2017-10-08T03:15:23.183Z,0
2017-10-08T03:16:24.703Z,0
2017-10-08T03:17:26.175Z,0
2017-10-08T03:18:27.742Z,0
2017-10-08T03:19:29.247Z,0
2017-10-08T03:20:30.768Z,0
2017-10-08T03:21:32.245Z,0
2017-10-08T03:22:33.789Z,0
2017-10-08T03:23:35.244Z,0
2017-10-08T03:24:36.779Z,0
2017-10-08T03:25:38.296Z,0
2017-10-08T03:26:39.858Z,0
2017-10-08T03:27:41.299Z,0
2017-10-08T03:28:42.859Z,0
2017-10-08T03:29:44.343Z,0
2017-10-08T03:30:45.938Z,0
2017-10-08T03:31:47.432Z,0
2017-10-08T03:32:49.019Z,0
2017-10-08T03:33:50.512Z,0
2017-10-08T03:34:52.080Z,0
2017-10-08T03:35:53.598Z,0
2017-10-08T03:36:55.202Z,0
2017-10-08T03:37:56.637Z,0
2017-10-08T03:38:58.245Z,0
2017-10-08T03:39:59.742Z,0
2017-10-08T03:41:01.229Z,0
2017-10-08T03:42:02.692Z,0
2017-10-08T03:43:04.248Z,0
2017-10-08T03:44:05.729Z,0
2017-10-08T03:45:07.285Z,0
2017-10-08T03:46:08.784Z,0
2017-10-08T03:47:10.303Z,0
2017-10-08T03:48:11.784Z,0
2017-10-08T03:49:13.421Z,0
2017-10-08T03:50:14.936Z,0
2017-10-08T03:51:16.458Z,0
2017-10-08T03:52:17.953Z,0
2017-10-08T03:53:19.549Z,0
2017-10-08T03:54:21.046Z,0
2017-10-08T03:55:22.623Z,0
2017-10-08T03:56:24.102Z,0
2017-10-08T03:57:25.631Z,0
2017-10-08T03:58:27.190Z,0
2017-10-08T03:59:28.659Z,0
2017-10-08T04:00:30.263Z,0
2017-10-08T04:01:31.741Z,0
2017-10-08T04:02:33.315Z,0
2017-10-08T04:03:34.825Z,0
2017-10-08T04:04:36.425Z,0
2017-10-08T04:05:37.884Z,0
2017-10-08T04:06:39.402Z,0
2017-10-08T04:07:40.931Z,0
2017-10-08T04:08:42.521Z,0
2017-10-08T04:09:44.003Z,0
2017-10-08T04:10:45.582Z,0
2017-10-08T04:11:47.122Z,0
2017-10-08T04:12:48.619Z,0
2017-10-08T04:13:50.128Z,0
2017-10-08T04:14:51.676Z,0
2017-10-08T04:15:53.262Z,0
2017-10-08T04:16:54.806Z,0
2017-10-08T04:17:56.302Z,0
2017-10-08T04:18:57.806Z,0
2017-10-08T04:19:59.282Z,0
2017-10-08T04:21:00.810Z,0
2017-10-08T04:22:02.309Z,0
2017-10-08T04:23:03.882Z,0
2017-10-08T04:24:05.334Z,0
2017-10-08T04:25:11.939Z,0
2017-10-08T04:26:13.437Z,0
2017-10-08T04:27:14.986Z,0
2017-10-08T04:28:16.535Z,0
2017-10-08T04:29:18.138Z,0
2017-10-08T04:30:19.687Z,0
2017-10-08T04:31:21.241Z,0
2017-10-08T04:32:22.729Z,0
2017-10-08T04:33:24.353Z,0
2017-10-08T04:34:25.897Z,0
2017-10-08T04:35:27.457Z,0
2017-10-08T04:36:29.007Z,0
2017-10-08T04:37:30.598Z,0
2017-10-08T04:38:32.110Z,0
2017-10-08T04:39:33.694Z,0
2017-10-08T04:40:35.201Z,0
2017-10-08T04:41:36.805Z,0
2017-10-08T04:42:38.309Z,0
2017-10-08T04:43:39.863Z,0
2017-10-08T04:44:41.390Z,0
2017-10-08T04:45:42.966Z,0
2017-10-08T04:46:44.570Z,0
2017-10-08T04:47:46.179Z,0
2017-10-08T04:48:47.660Z,0
2017-10-08T04:49:49.200Z,0
2017-10-08T04:50:50.756Z,0
2017-10-08T04:51:52.266Z,0
2017-10-08T04:52:53.749Z,0
2017-10-08T04:53:55.243Z,0
2017-10-08T04:54:56.753Z,0
2017-10-08T04:55:58.349Z,0
2017-10-08T04:56:59.807Z,0
2017-10-08T04:58:01.328Z,0
2017-10-08T04:59:02.827Z,0
2017-10-08T05:00:04.369Z,0
2017-10-08T05:01:05.838Z,0
2017-10-08T05:02:07.448Z,0
2017-10-08T05:03:08.902Z,0
2017-10-08T05:04:10.499Z,0
2017-10-08T05:05:11.982Z,0
2017-10-08T05:06:13.611Z,0
2017-10-08T05:07:15.124Z,0
2017-10-08T05:08:16.643Z,0
2017-10-08T05:09:18.133Z,0
2017-10-08T05:10:19.749Z,0
2017-10-08T05:11:21.257Z,0
2017-10-08T05:12:22.868Z,0
2017-10-08T05:13:24.328Z,0
2017-10-08T05:14:25.909Z,0
2017-10-08T05:15:27.381Z,0
2017-10-08T05:16:28.892Z,0
2017-10-08T05:17:30.379Z,0
2017-10-08T05:18:31.905Z,0
2017-10-08T05:19:33.399Z,0
2017-10-08T05:20:34.948Z,0
2017-10-08T05:21:36.408Z,0
2017-10-08T05:22:37.951Z,0
2017-10-08T05:23:39.465Z,0
2017-10-08T05:24:41.043Z,0
2017-10-08T05:25:42.551Z,0
2017-10-08T05:26:44.147Z,0
2017-10-08T05:27:45.646Z,0
2017-10-08T05:28:47.196Z,0
2017-10-08T05:29:48.739Z,0
2017-10-08T05:30:50.310Z,0
2017-10-08T05:31:51.831Z,0
2017-10-08T05:32:53.379Z,0
2017-10-08T05:33:54.891Z,0
2017-10-08T05:34:56.451Z,0
2017-10-08T05:35:57.930Z,0
2017-10-08T05:36:59.553Z,0
2017-10-08T05:38:01.047Z,0
2017-10-08T05:39:02.622Z,0
2017-10-08T05:40:04.067Z,0
2017-10-08T05:41:05.606Z,0
2017-10-08T05:42:07.050Z,0
2017-10-08T05:43:08.553Z,0
2017-10-08T05:44:10.037Z,0
2017-10-08T05:45:11.601Z,0
2017-10-08T05:46:13.100Z,0
2017-10-08T05:47:14.640Z,0
2017-10-08T05:48:16.163Z,0
2017-10-08T05:49:17.751Z,0
2017-10-08T05:50:19.231Z,0
2017-10-08T05:51:20.828Z,0
2017-10-08T05:52:22.293Z,0
2017-10-08T05:53:23.810Z,0
2017-10-08T05:54:25.307Z,0
2017-10-08T05:55:26.887Z,5
2017-10-08T05:56:28.352Z,5
2017-10-08T05:57:29.914Z,5
2017-10-08T05:58:31.412Z,5
2017-10-08T05:59:32.921Z,5
2017-10-08T06:00:34.409Z,5
2017-10-08T06:01:35.908Z,5
2017-10-08T06:02:37.392Z,5
2017-10-08T06:03:38.929Z,5
2017-10-08T06:04:40.414Z,5
2017-10-08T06:05:42.026Z,5
2017-10-08T06:06:43.491Z,5
2017-10-08T06:07:45.185Z,5
2017-10-08T06:08:46.639Z,5
2017-10-08T06:09:48.222Z,5
2017-10-08T06:10:49.783Z,5
2017-10-08T06:11:51.431Z,5
2017-10-08T06:12:52.932Z,11
2017-10-08T06:13:55.487Z,11
2017-10-08T06:14:56.978Z,11
2017-10-08T06:15:58.594Z,11
2017-10-08T06:17:00.111Z,11
2017-10-08T06:18:01.653Z,16
2017-10-08T06:19:03.148Z,16
2017-10-08T06:20:04.723Z,16
2017-10-08T06:21:06.195Z,16
2017-10-08T06:22:07.711Z,22
2017-10-08T06:23:09.185Z,16
2017-10-08T06:24:10.699Z,16
2017-10-08T06:25:12.227Z,22
2017-10-08T06:26:13.812Z,16
2017-10-08T06:27:15.303Z,16
2017-10-08T06:28:16.860Z,16
2017-10-08T06:29:18.325Z,16
2017-10-08T06:30:19.863Z,16
2017-10-08T06:31:21.382Z,16
2017-10-08T06:32:22.850Z,16
2017-10-08T06:33:24.313Z,16
2017-10-08T06:34:25.870Z,16
2017-10-08T06:35:27.370Z,22
2017-10-08T06:36:28.919Z,22
2017-10-08T06:37:30.397Z,22
2017-10-08T06:38:31.987Z,16
2017-10-08T06:39:33.451Z,16
2017-10-08T06:40:34.949Z,22
2017-10-08T06:41:36.433Z,22
2017-10-08T06:42:37.913Z,22
2017-10-08T06:43:39.420Z,22
2017-10-08T06:44:40.931Z,22
2017-10-08T06:45:42.476Z,22
2017-10-08T06:46:44.030Z,22
2017-10-08T06:47:45.556Z,22
2017-10-08T06:48:47.150Z,22
2017-10-08T06:49:48.658Z,28
2017-10-08T06:50:50.220Z,28
2017-10-08T06:51:51.760Z,22
2017-10-08T06:52:53.374Z,22
2017-10-08T06:53:54.852Z,22
2017-10-08T06:54:56.384Z,28
2017-10-08T06:55:57.856Z,33
2017-10-08T06:56:59.562Z,39
2017-10-08T06:58:01.020Z,33
2017-10-08T06:59:02.518Z,39
2017-10-08T07:00:04.007Z,39
2017-10-08T07:01:05.513Z,50
2017-10-08T07:02:06.966Z,50
2017-10-08T07:03:08.514Z,50
2017-10-08T07:04:09.980Z,45
2017-10-08T07:05:11.613Z,50
2017-10-08T07:06:13.102Z,56
2017-10-08T07:07:14.656Z,50
2017-10-08T07:08:16.125Z,45
2017-10-08T07:09:18.615Z,45
2017-10-08T07:10:20.048Z,45
2017-10-08T07:11:37.435Z,39
2017-10-08T07:12:38.900Z,39
2017-10-08T07:13:40.433Z,39
2017-10-08T07:14:41.942Z,39
2017-10-08T07:15:43.552Z,39
2017-10-08T07:16:45.018Z,33
2017-10-08T07:17:46.597Z,33
2017-10-08T07:18:48.103Z,39
2017-10-08T07:19:49.721Z,45
2017-10-08T07:20:51.185Z,45
2017-10-08T07:21:52.711Z,39
2017-10-08T07:22:54.236Z,45
2017-10-08T07:23:55.790Z,50
2017-10-08T07:24:57.247Z,61
2017-10-08T07:25:58.783Z,73
2017-10-08T07:27:00.248Z,61
2017-10-08T07:28:01.819Z,61
2017-10-08T07:29:03.391Z,73
2017-10-08T07:30:04.974Z,78
2017-10-08T07:31:06.432Z,84
2017-10-08T07:32:08.972Z,84
2017-10-08T07:33:10.455Z,78
2017-10-08T07:34:12.016Z,84
2017-10-08T07:35:13.528Z,90
2017-10-08T07:36:15.057Z,112
2017-10-08T07:37:16.583Z,118
2017-10-08T07:38:18.143Z,123
2017-10-08T07:39:19.635Z,118
2017-10-08T07:40:21.229Z,106
2017-10-08T07:41:22.691Z,95
2017-10-08T07:42:24.338Z,101
2017-10-08T07:43:25.880Z,90
2017-10-08T07:44:27.380Z,84
2017-10-08T07:45:28.835Z,73
2017-10-08T07:46:30.365Z,61
2017-10-08T07:47:31.854Z,61
2017-10-08T07:48:33.344Z,61
2017-10-08T07:49:34.817Z,61
2017-10-08T07:50:36.327Z,61
2017-10-08T07:51:37.844Z,67
2017-10-08T07:52:39.492Z,73
2017-10-08T07:53:41.423Z,78
2017-10-08T07:54:43.308Z,84
2017-10-08T07:55:45.307Z,95
2017-10-08T07:56:47.053Z,106
2017-10-08T07:57:48.627Z,112
2017-10-08T07:58:50.284Z,112
2017-10-08T07:59:51.756Z,140
2017-10-08T08:00:53.369Z,163
2017-10-08T08:01:54.948Z,140
2017-10-08T08:02:56.587Z,112
2017-10-08T08:03:58.137Z,101
2017-10-08T08:04:59.773Z,106
2017-10-08T08:06:01.329Z,140
2017-10-08T08:07:02.962Z,157
2017-10-08T08:08:04.439Z,208
2017-10-08T08:09:06.076Z,225
2017-10-08T08:10:07.558Z,236
2017-10-08T08:11:09.170Z,208
2017-10-08T08:12:10.658Z,185
2017-10-08T08:13:12.241Z,163
2017-10-08T08:14:13.804Z,191
2017-10-08T08:15:15.388Z,219
2017-10-08T08:16:16.976Z,202
2017-10-08T08:17:18.511Z,174
2017-10-08T08:18:20.050Z,196
2017-10-08T08:19:21.520Z,185
2017-10-08T08:20:23.204Z,191
2017-10-08T08:21:24.750Z,196
2017-10-08T08:22:26.396Z,196
2017-10-08T08:23:27.895Z,185
2017-10-08T08:24:29.589Z,163
2017-10-08T08:25:31.092Z,185
2017-10-08T08:26:32.787Z,208
2017-10-08T08:27:34.423Z,196
2017-10-08T08:28:36.026Z,174
2017-10-08T08:29:37.552Z,174
2017-10-08T08:30:39.073Z,185
2017-10-08T08:31:40.636Z,191
2017-10-08T08:32:42.235Z,174
2017-10-08T08:33:43.788Z,163
2017-10-08T08:34:45.363Z,168
2017-10-08T08:35:46.996Z,163
2017-10-08T08:36:48.575Z,157
2017-10-08T08:37:50.080Z,146
2017-10-08T08:38:51.653Z,146
2017-10-08T08:39:53.186Z,129
2017-10-08T08:40:54.690Z,146
2017-10-08T08:41:56.225Z,174
2017-10-08T08:42:57.845Z,202
2017-10-08T08:43:59.358Z,208
2017-10-08T08:45:00.929Z,213
2017-10-08T08:46:02.367Z,168
2017-10-08T08:47:03.961Z,151
2017-10-08T08:48:05.509Z,163
2017-10-08T08:49:07.102Z,146
2017-10-08T08:50:08.586Z,135
2017-10-08T08:51:10.202Z,146
2017-10-08T08:52:11.712Z,185
2017-10-08T08:53:13.248Z,202
2017-10-08T08:54:15.916Z,191
2017-10-08T08:55:17.488Z,174
2017-10-08T08:56:19.111Z,146
2017-10-08T08:57:21.818Z,163
2017-10-08T08:58:23.360Z,208
2017-10-08T08:59:25.002Z,163
2017-10-08T09:00:27.639Z,140
2017-10-08T09:01:29.175Z,129
2017-10-08T09:02:30.756Z,151
2017-10-08T09:03:32.349Z,146
2017-10-08T09:04:33.910Z,157
2017-10-08T09:05:35.797Z,202
2017-10-08T09:06:37.299Z,247
2017-10-08T09:07:38.976Z,208
2017-10-08T09:08:40.599Z,196
2017-10-08T09:09:42.304Z,191
2017-10-08T09:10:43.888Z,196
2017-10-08T09:11:46.108Z,180
2017-10-08T09:12:48.180Z,196
2017-10-08T09:13:50.144Z,196
2017-10-08T09:14:51.870Z,213
2017-10-08T09:15:53.640Z,213
2017-10-08T09:16:55.327Z,168
2017-10-08T09:17:57.006Z,168
2017-10-08T09:18:59.530Z,168
2017-10-08T09:20:01.491Z,174
2017-10-08T09:21:03.111Z,185
2017-10-08T09:22:04.652Z,157
2017-10-08T09:23:06.203Z,168
2017-10-08T09:24:07.722Z,163
2017-10-08T09:25:09.388Z,174
2017-10-08T09:26:11.517Z,208
2017-10-08T09:27:13.217Z,208
2017-10-08T09:28:14.755Z,208
2017-10-08T09:29:16.388Z,196
2017-10-08T09:30:24.587Z,247
2017-10-08T09:31:27.053Z,264
2017-10-08T09:32:28.679Z,264
2017-10-08T09:33:30.690Z,281
2017-10-08T09:34:32.335Z,337
2017-10-08T09:35:33.935Z,315
2017-10-08T09:36:35.540Z,286
2017-10-08T09:37:40.117Z,286
2017-10-08T09:38:41.481Z,309
2017-10-08T09:39:43.090Z,303
2017-10-08T09:40:44.685Z,331
2017-10-08T09:41:46.319Z,371
2017-10-08T09:42:47.917Z,365
2017-10-08T09:43:49.572Z,376
2017-10-08T09:44:51.178Z,309
2017-10-08T09:45:52.930Z,275
2017-10-08T09:46:54.635Z,275
2017-10-08T09:47:56.271Z,275
2017-10-08T09:48:57.884Z,292
2017-10-08T09:49:59.535Z,298
2017-10-08T09:51:01.235Z,343
2017-10-08T09:52:02.838Z,388
2017-10-08T09:53:19.615Z,365
2017-10-08T09:54:21.379Z,354
2017-10-08T09:55:23.067Z,331
2017-10-08T09:56:24.862Z,303
2017-10-08T09:57:30.541Z,365
2017-10-08T09:58:32.290Z,461
2017-10-08T09:59:34.102Z,478
2017-10-08T10:00:35.733Z,438
2017-10-08T10:01:37.384Z,376
2017-10-08T10:02:39.137Z,376
2017-10-08T10:03:40.855Z,365
2017-10-08T10:04:42.997Z,331
2017-10-08T10:05:46.387Z,365
2017-10-08T10:06:48.226Z,320
2017-10-08T10:07:49.915Z,393
2017-10-08T10:08:51.708Z,343
2017-10-08T10:09:53.492Z,281
2017-10-08T10:10:55.256Z,258
2017-10-08T10:11:57.059Z,225
2017-10-08T10:12:58.884Z,213
2017-10-08T10:14:00.567Z,225
2017-10-08T10:15:02.317Z,247
2017-10-08T10:16:04.016Z,264
2017-10-08T10:17:05.679Z,253
2017-10-08T10:18:07.758Z,292
2017-10-08T10:19:09.411Z,331
2017-10-08T10:20:11.085Z,382
2017-10-08T10:21:13.007Z,337
2017-10-08T10:22:14.620Z,348
2017-10-08T10:23:16.433Z,365
2017-10-08T10:24:18.129Z,348
2017-10-08T10:25:19.806Z,292
2017-10-08T10:26:21.727Z,292
2017-10-08T10:27:23.803Z,315
2017-10-08T10:28:25.933Z,315
2017-10-08T10:29:27.903Z,303
2017-10-08T10:30:29.864Z,315
2017-10-08T10:31:31.871Z,326
2017-10-08T10:32:33.804Z,247
2017-10-08T10:33:35.788Z,225
2017-10-08T10:34:37.745Z,219
2017-10-08T10:35:39.497Z,241
2017-10-08T10:36:41.207Z,270
2017-10-08T10:37:42.882Z,331
2017-10-08T10:38:44.617Z,376
2017-10-08T10:39:46.300Z,478
2017-10-08T10:40:48.017Z,562
2017-10-08T10:41:50.569Z,562
2017-10-08T10:42:52.362Z,551
2017-10-08T10:43:54.125Z,500
2017-10-08T10:44:55.933Z,500
2017-10-08T10:45:57.612Z,528
2017-10-08T10:46:59.554Z,478
2017-10-08T10:48:01.257Z,405
2017-10-08T10:49:03.184Z,438
2017-10-08T10:50:04.839Z,500
2017-10-08T10:51:06.593Z,607
2017-10-08T10:52:08.281Z,601
2017-10-08T10:53:09.927Z,573
2017-10-08T10:54:11.561Z,590
2017-10-08T10:55:13.113Z,489
2017-10-08T10:56:14.722Z,371
2017-10-08T10:57:16.373Z,298
2017-10-08T10:58:18.108Z,247
2017-10-08T10:59:19.775Z,247
2017-10-08T11:00:21.432Z,225
2017-10-08T11:01:23.125Z,208
2017-10-08T11:02:24.772Z,219
2017-10-08T11:03:26.463Z,230
2017-10-08T11:04:28.210Z,264
2017-10-08T11:05:29.908Z,270
2017-10-08T11:06:31.512Z,286
2017-10-08T11:07:33.151Z,337
2017-10-08T11:08:34.817Z,371
2017-10-08T11:09:36.461Z,354
2017-10-08T11:10:38.179Z,348
2017-10-08T11:11:39.794Z,365
2017-10-08T11:12:41.562Z,433
2017-10-08T11:13:43.209Z,393
2017-10-08T11:14:44.840Z,421
2017-10-08T11:15:46.488Z,388
2017-10-08T11:16:48.130Z,410
2017-10-08T11:17:50.898Z,405
2017-10-08T11:18:52.509Z,427
2017-10-08T11:19:54.415Z,438
2017-10-08T11:20:56.055Z,326
2017-10-08T11:21:57.757Z,247
2017-10-08T11:22:59.328Z,331
2017-10-08T11:24:00.992Z,421
2017-10-08T11:25:02.700Z,511
2017-10-08T11:26:05.239Z,675
2017-10-08T11:27:06.906Z,810
2017-10-08T11:28:08.715Z,675
2017-10-08T11:29:11.172Z,466
2017-10-08T11:30:12.926Z,607
2017-10-08T11:31:14.537Z,635
2017-10-08T11:32:16.282Z,585
2017-10-08T11:33:18.020Z,714
2017-10-08T11:34:19.839Z,1153
2017-10-08T11:35:21.428Z,1856
2017-10-08T11:36:23.096Z,1378
2017-10-08T11:37:24.726Z,1271
2017-10-08T11:38:26.399Z,2289
2017-10-08T11:39:28.022Z,1665
2017-10-08T11:40:29.879Z,2536
2017-10-08T11:41:31.520Z,1670
2017-10-08T11:42:33.285Z,1355
2017-10-08T11:43:34.924Z,1361
2017-10-08T11:44:37.597Z,1035
2017-10-08T11:45:39.591Z,945
2017-10-08T11:46:41.251Z,770
2017-10-08T11:47:43.054Z,635
2017-10-08T11:48:45.078Z,528
2017-10-08T11:49:46.672Z,455
2017-10-08T11:50:48.718Z,427
2017-10-08T11:51:50.567Z,461
2017-10-08T11:52:52.242Z,483
2017-10-08T11:53:54.110Z,410
2017-10-08T11:54:55.800Z,399
2017-10-08T11:55:57.513Z,427
2017-10-08T11:56:59.286Z,399
2017-10-08T11:58:01.741Z,393
2017-10-08T11:59:03.455Z,433
2017-10-08T12:00:05.221Z,466
2017-10-08T12:01:07.076Z,450
2017-10-08T12:02:08.768Z,371
2017-10-08T12:03:10.581Z,348
2017-10-08T12:04:12.890Z,320
2017-10-08T12:05:14.582Z,315
2017-10-08T12:06:16.286Z,309
2017-10-08T12:07:17.875Z,320
2017-10-08T12:08:19.678Z,388
2017-10-08T12:09:21.281Z,500
2017-10-08T12:10:24.203Z,556
2017-10-08T12:11:25.937Z,641
2017-10-08T12:12:28.721Z,753
2017-10-08T12:13:30.503Z,742
2017-10-08T12:14:32.181Z,641
2017-10-08T12:15:33.857Z,551
2017-10-08T12:16:35.907Z,573
2017-10-08T12:17:37.559Z,590
2017-10-08T12:18:39.270Z,585
2017-10-08T12:19:40.913Z,545
2017-10-08T12:20:42.794Z,495
2017-10-08T12:21:44.443Z,466
2017-10-08T12:22:46.508Z,461
2017-10-08T12:23:48.157Z,506
2017-10-08T12:24:49.733Z,562
2017-10-08T12:25:51.542Z,596
2017-10-08T12:26:53.729Z,601
2017-10-08T12:27:55.395Z,585
2017-10-08T12:28:57.002Z,568
2017-10-08T12:29:58.652Z,545
2017-10-08T12:31:00.209Z,928
2017-10-08T12:32:01.859Z,703
2017-10-08T12:33:04.594Z,765
2017-10-08T12:34:06.193Z,753
2017-10-08T12:35:07.952Z,776
2017-10-08T12:36:09.566Z,804
2017-10-08T12:37:11.280Z,787
2017-10-08T12:38:13.053Z,742
2017-10-08T12:39:14.855Z,697
2017-10-08T12:40:16.516Z,658
2017-10-08T12:41:18.159Z,607
2017-10-08T12:42:20.178Z,534
2017-10-08T12:43:21.941Z,466
2017-10-08T12:44:23.766Z,438
2017-10-08T12:45:25.615Z,438
2017-10-08T12:46:27.738Z,433
2017-10-08T12:47:29.514Z,382
2017-10-08T12:48:31.241Z,315
2017-10-08T12:49:33.046Z,298
2017-10-08T12:50:34.819Z,264
2017-10-08T12:51:36.744Z,236
2017-10-08T12:52:38.344Z,241
2017-10-08T12:53:39.995Z,225
2017-10-08T12:54:43.016Z,191
2017-10-08T12:55:44.619Z,185
2017-10-08T12:56:46.345Z,196
2017-10-08T12:57:48.133Z,230
2017-10-08T12:58:50.416Z,264
2017-10-08T12:59:52.165Z,303
2017-10-08T13:00:53.879Z,365
2017-10-08T13:01:55.623Z,466
2017-10-08T13:02:57.218Z,562
2017-10-08T13:03:58.911Z,697
2017-10-08T13:05:00.634Z,590
2017-10-08T13:06:02.701Z,500
2017-10-08T13:07:04.531Z,444
2017-10-08T13:08:06.889Z,427
2017-10-08T13:09:08.452Z,371
2017-10-08T13:10:11.130Z,354
2017-10-08T13:11:12.780Z,348
2017-10-08T13:12:14.860Z,326
2017-10-08T13:13:16.533Z,315
2017-10-08T13:14:18.849Z,281
2017-10-08T13:15:20.575Z,270
2017-10-08T13:16:22.282Z,270
2017-10-08T13:17:24.047Z,247
2017-10-08T13:18:25.723Z,225
2017-10-08T13:19:27.410Z,213
2017-10-08T13:20:29.183Z,213
2017-10-08T13:21:30.831Z,213
2017-10-08T13:22:32.592Z,196
2017-10-08T13:23:34.419Z,219
2017-10-08T13:24:37.047Z,270
2017-10-08T13:25:38.753Z,298
2017-10-08T13:26:40.414Z,320
2017-10-08T13:27:42.052Z,331
2017-10-08T13:28:43.864Z,309
2017-10-08T13:29:45.478Z,281
2017-10-08T13:30:47.264Z,247
2017-10-08T13:31:48.874Z,225
2017-10-08T13:32:50.695Z,225
2017-10-08T13:33:52.341Z,225
2017-10-08T13:34:54.003Z,219
2017-10-08T13:35:55.717Z,225
2017-10-08T13:36:57.448Z,236
2017-10-08T13:37:58.968Z,247
2017-10-08T13:39:00.715Z,765
2017-10-08T13:40:02.358Z,281
2017-10-08T13:41:04.077Z,303
2017-10-08T13:42:05.796Z,810
2017-10-08T13:43:07.451Z,421
2017-10-08T13:44:08.994Z,337
2017-10-08T13:45:10.809Z,264
2017-10-08T13:46:12.590Z,320
2017-10-08T13:47:14.436Z,303
2017-10-08T13:48:16.091Z,292
2017-10-08T13:49:18.568Z,315
2017-10-08T13:50:20.192Z,315
2017-10-08T13:51:22.075Z,281
2017-10-08T13:52:23.630Z,258
2017-10-08T13:53:25.521Z,286
2017-10-08T13:54:27.150Z,331
2017-10-08T13:55:29.019Z,382
2017-10-08T13:56:30.631Z,393
2017-10-08T13:57:32.366Z,399
2017-10-08T13:58:33.870Z,421
2017-10-08T13:59:35.516Z,438
2017-10-08T14:00:37.023Z,421
2017-10-08T14:01:38.618Z,388
2017-10-08T14:02:40.110Z,343
2017-10-08T14:03:41.789Z,286
2017-10-08T14:04:43.336Z,253
2017-10-08T14:05:44.948Z,213
2017-10-08T14:06:46.648Z,185
2017-10-08T14:07:48.267Z,140
2017-10-08T14:08:49.864Z,106
2017-10-08T14:09:51.459Z,95
2017-10-08T14:10:52.971Z,90
2017-10-08T14:11:54.527Z,101
2017-10-08T14:12:56.093Z,112
2017-10-08T14:13:57.694Z,118
2017-10-08T14:14:59.179Z,118
2017-10-08T14:16:00.770Z,106
2017-10-08T14:17:02.286Z,106
2017-10-08T14:18:03.882Z,101
2017-10-08T14:19:05.356Z,95
2017-10-08T14:20:06.995Z,90
2017-10-08T14:21:08.503Z,78
2017-10-08T14:22:10.653Z,73
2017-10-08T14:23:12.175Z,78
2017-10-08T14:24:13.780Z,112
2017-10-08T14:25:15.314Z,185
2017-10-08T14:26:16.944Z,275
2017-10-08T14:27:18.512Z,326
2017-10-08T14:28:20.203Z,360
2017-10-08T14:29:21.876Z,382
2017-10-08T14:30:23.441Z,365
2017-10-08T14:31:25.079Z,326
2017-10-08T14:32:26.911Z,286
2017-10-08T14:33:28.410Z,236
2017-10-08T14:34:30.007Z,202
2017-10-08T14:35:31.500Z,168
2017-10-08T14:36:33.312Z,135
2017-10-08T14:37:34.804Z,101
2017-10-08T14:38:36.744Z,84